Mostly Cloudy Current Weather (METAR) For Amsterdam Schiphol Airport

All times on the weather descriptions are local

Observed at 12:25 - (31 mins ago)

Mostly Cloudy

4°C

Mostly Cloudy
Clouds: Broken Clouds at 800ft, Broken Clouds at 1,200ft, Broken Clouds at 1,200ft
Wind: 140° at 08 knots, varying from 110° to 170
Visibility: Greater than 10km
QNH: 0999
Dew Point: 3°C
Runways with a headwind: Runway 06, Runway 09, Runways 18L/C/R

Sunrise Today: 08:00
Sunset Today: 17:49

Forecast Weather (TAF) For Amsterdam Schiphol Airport

Issued at 01:00 - (17 days ago)


Runways with a headwind: Unable to determine, wind is clam

Forecast valid until 01:00 on Monday

METAR/TAF RAW METAR / TAF

EHAM 121125Z 14008KT 110V170 9999 BKN008 BKN012 04/03 Q0999 BECMG BKN012

Weather Widget

Put weather from any of our airports on your website with our weather widget.

Find Another Search

Airport Search


Please Wait Please Wait - Loading
Close
Close

Login

Username:

Password:

Remember Me:

Remember me on this computer

Forgotten your password? Get a reset password sent to your registered e-mail address

Close

User Private Message

Subject:

Message: